createdAt,value
2018-02-18T00:00:35.377Z,43.51
2018-02-18T00:01:37.862Z,43.57
2018-02-18T00:02:40.341Z,43.62
2018-02-18T00:03:42.827Z,43.90
2018-02-18T00:04:45.375Z,43.99
2018-02-18T00:05:47.856Z,44.00
2018-02-18T00:06:50.319Z,44.00
2018-02-18T00:07:52.795Z,44.14
2018-02-18T00:08:55.269Z,44.12
2018-02-18T00:09:57.740Z,44.10
2018-02-18T00:11:00.217Z,44.10
2018-02-18T00:12:02.693Z,44.12
2018-02-18T00:13:05.177Z,44.46
2018-02-18T00:14:09.598Z,44.76
2018-02-18T00:15:12.778Z,44.75
2018-02-18T00:16:15.278Z,44.79
2018-02-18T00:17:17.761Z,44.90
2018-02-18T00:18:20.231Z,45.11
2018-02-18T00:19:22.691Z,45.09
2018-02-18T00:20:25.179Z,44.97
2018-02-18T00:21:27.645Z,44.88
2018-02-18T00:22:30.129Z,44.97
2018-02-18T00:23:32.623Z,45.19
2018-02-18T00:24:35.114Z,45.40
2018-02-18T00:25:37.585Z,45.22
2018-02-18T00:26:40.052Z,45.12
2018-02-18T00:27:42.534Z,45.26
2018-02-18T00:28:44.999Z,45.28
2018-02-18T00:29:47.466Z,45.28
2018-02-18T00:30:49.935Z,45.20
2018-02-18T00:31:52.399Z,45.20
2018-02-18T00:32:54.867Z,45.23
2018-02-18T00:33:57.369Z,45.38
2018-02-18T00:34:59.853Z,45.43
2018-02-18T00:36:02.335Z,45.54
2018-02-18T00:37:04.821Z,45.47
2018-02-18T00:38:07.295Z,45.48
2018-02-18T00:39:09.764Z,45.51
2018-02-18T00:40:12.236Z,45.75
2018-02-18T00:41:14.698Z,45.85
2018-02-18T00:42:17.168Z,45.97
2018-02-18T00:43:19.634Z,45.89
2018-02-18T00:44:22.148Z,45.70
2018-02-18T00:45:24.625Z,45.67
2018-02-18T00:46:27.109Z,45.66
2018-02-18T00:47:29.577Z,45.90
2018-02-18T00:48:32.065Z,45.83
2018-02-18T00:49:34.526Z,45.85
2018-02-18T00:50:37.001Z,45.91
2018-02-18T00:51:39.501Z,46.03
2018-02-18T00:52:42.002Z,46.10
2018-02-18T00:53:44.485Z,46.05
2018-02-18T00:54:46.963Z,46.15
2018-02-18T00:55:49.441Z,46.14
2018-02-18T00:56:51.926Z,46.16
2018-02-18T00:57:54.399Z,46.26
2018-02-18T00:58:56.889Z,46.27
2018-02-18T00:59:59.366Z,46.30
2018-02-18T01:01:01.827Z,46.37
2018-02-18T01:02:04.322Z,46.38
2018-02-18T01:03:06.803Z,46.42
2018-02-18T01:04:09.274Z,46.43
2018-02-18T01:05:11.773Z,46.53
2018-02-18T01:06:14.271Z,46.52
2018-02-18T01:07:16.746Z,46.52
2018-02-18T01:08:19.224Z,46.71
2018-02-18T01:09:21.708Z,46.70
2018-02-18T01:10:24.201Z,46.76
2018-02-18T01:11:26.685Z,46.83
2018-02-18T01:12:29.163Z,46.82
2018-02-18T01:13:31.641Z,46.93
2018-02-18T01:14:34.116Z,46.99
2018-02-18T01:15:36.589Z,47.08
2018-02-18T01:16:39.072Z,47.06
2018-02-18T01:17:41.549Z,47.20
2018-02-18T01:18:44.038Z,47.20
2018-02-18T01:19:46.515Z,47.24
2018-02-18T01:20:49.001Z,47.19
2018-02-18T01:21:51.466Z,47.55
2018-02-18T01:22:53.946Z,48.00
2018-02-18T01:23:56.435Z,48.06
2018-02-18T01:24:58.915Z,47.78
2018-02-18T01:26:01.375Z,47.72
2018-02-18T01:27:03.839Z,47.40
2018-02-18T01:28:06.322Z,47.59
2018-02-18T01:29:08.787Z,47.54
2018-02-18T01:30:11.261Z,47.54
2018-02-18T01:31:13.743Z,47.54
2018-02-18T01:32:16.316Z,47.56
2018-02-18T01:33:18.801Z,47.42
2018-02-18T01:34:21.271Z,47.17
2018-02-18T01:35:23.739Z,47.13
2018-02-18T01:36:26.199Z,47.11
2018-02-18T01:37:28.703Z,47.01
2018-02-18T01:38:31.197Z,47.04
2018-02-18T01:39:33.667Z,46.96
2018-02-18T01:40:36.131Z,47.03
2018-02-18T01:41:38.617Z,46.86
2018-02-18T01:42:41.083Z,46.93
2018-02-18T01:43:43.574Z,47.06
2018-02-18T01:44:46.057Z,46.89
2018-02-18T01:45:48.523Z,47.06
2018-02-18T01:46:50.995Z,47.18
2018-02-18T01:47:53.477Z,47.12
2018-02-18T01:48:55.943Z,47.17
2018-02-18T01:49:58.423Z,47.18
2018-02-18T01:51:00.896Z,47.14
2018-02-18T01:52:03.386Z,47.20
2018-02-18T01:53:05.873Z,47.12
2018-02-18T01:54:08.351Z,47.16
2018-02-18T01:55:10.834Z,47.19
2018-02-18T01:56:13.311Z,47.17
2018-02-18T01:57:15.801Z,47.07
2018-02-18T01:58:18.282Z,47.10
2018-02-18T01:59:20.761Z,47.16
2018-02-18T02:00:23.241Z,47.13
2018-02-18T02:01:25.711Z,47.01
2018-02-18T02:02:28.212Z,47.03
2018-02-18T02:03:30.689Z,47.12
2018-02-18T02:04:33.169Z,46.96
2018-02-18T02:05:35.658Z,47.22
2018-02-18T02:06:38.135Z,47.19
2018-02-18T02:07:40.693Z,47.19
2018-02-18T02:08:43.167Z,47.39
2018-02-18T02:09:45.631Z,47.52
2018-02-18T02:10:48.109Z,47.74
2018-02-18T02:11:50.587Z,47.56
2018-02-18T02:12:53.073Z,47.41
2018-02-18T02:13:55.546Z,47.48
2018-02-18T02:14:58.044Z,47.75
2018-02-18T02:16:00.533Z,47.88
2018-02-18T02:17:03.009Z,47.83
2018-02-18T02:18:05.484Z,48.03
2018-02-18T02:19:07.947Z,48.14
2018-02-18T02:20:10.429Z,48.24
2018-02-18T02:21:12.906Z,48.23
2018-02-18T02:22:15.389Z,48.41
2018-02-18T02:23:17.889Z,48.26
2018-02-18T02:24:20.375Z,48.03
2018-02-18T02:25:22.843Z,48.17
2018-02-18T02:26:25.317Z,48.34
2018-02-18T02:27:27.820Z,48.29
2018-02-18T02:28:30.331Z,48.25
2018-02-18T02:29:32.809Z,48.18
2018-02-18T02:30:35.294Z,48.19
2018-02-18T02:31:37.772Z,48.00
2018-02-18T02:32:40.261Z,47.82
2018-02-18T02:33:42.753Z,47.70
2018-02-18T02:34:45.233Z,47.69
2018-02-18T02:35:47.709Z,47.70
2018-02-18T02:36:50.185Z,47.58
2018-02-18T02:37:52.682Z,47.73
2018-02-18T02:38:55.263Z,47.64
2018-02-18T02:39:57.780Z,47.71
2018-02-18T02:41:00.253Z,47.59
2018-02-18T02:42:02.752Z,47.51
2018-02-18T02:43:05.244Z,47.53
2018-02-18T02:44:07.721Z,47.59
2018-02-18T02:45:10.199Z,47.59
2018-02-18T02:46:12.689Z,47.71
2018-02-18T02:47:15.181Z,47.75
2018-02-18T02:48:17.647Z,47.73
2018-02-18T02:49:20.159Z,47.78
2018-02-18T02:50:22.639Z,47.75
2018-02-18T02:51:25.115Z,47.81
2018-02-18T02:52:27.596Z,47.83
2018-02-18T02:53:30.083Z,47.95
2018-02-18T02:54:32.566Z,48.00
2018-02-18T02:55:35.031Z,47.97
2018-02-18T02:56:37.529Z,47.95
2018-02-18T02:57:40.014Z,48.04
2018-02-18T02:58:42.494Z,47.96
2018-02-18T02:59:45.013Z,48.05
2018-02-18T03:00:47.507Z,48.30
2018-02-18T03:01:49.968Z,48.02
2018-02-18T03:02:52.502Z,48.18
2018-02-18T03:03:54.975Z,48.36
2018-02-18T03:04:57.441Z,48.22
2018-02-18T03:05:59.929Z,48.19
2018-02-18T03:07:02.400Z,48.26
2018-02-18T03:08:04.891Z,48.38
2018-02-18T03:09:07.372Z,48.33
2018-02-18T03:10:09.840Z,48.22
2018-02-18T03:11:12.310Z,48.10
2018-02-18T03:12:14.776Z,48.34
2018-02-18T03:13:17.302Z,48.53
2018-02-18T03:14:19.781Z,48.49
2018-02-18T03:15:22.270Z,48.36
2018-02-18T03:16:24.771Z,48.49
2018-02-18T03:17:27.239Z,48.48
2018-02-18T03:18:29.777Z,48.69
2018-02-18T03:19:32.248Z,49.00
2018-02-18T03:20:34.715Z,48.93
2018-02-18T03:21:37.183Z,49.00
2018-02-18T03:22:39.647Z,48.98
2018-02-18T03:23:42.140Z,48.85
2018-02-18T03:24:44.608Z,48.82
2018-02-18T03:25:47.081Z,48.69
2018-02-18T03:26:49.548Z,48.57
2018-02-18T03:27:52.035Z,48.68
2018-02-18T03:28:54.546Z,48.54
2018-02-18T03:29:57.027Z,48.41
2018-02-18T03:30:59.505Z,48.15
2018-02-18T03:32:01.969Z,48.10
2018-02-18T03:33:04.445Z,48.15
2018-02-18T03:34:06.931Z,48.15
2018-02-18T03:35:09.401Z,48.14
2018-02-18T03:36:11.905Z,48.27
2018-02-18T03:37:14.373Z,48.24
2018-02-18T03:38:16.847Z,48.18
2018-02-18T03:39:19.357Z,48.20
2018-02-18T03:40:21.838Z,48.33
2018-02-18T03:41:24.303Z,48.65
2018-02-18T03:42:26.767Z,48.51
2018-02-18T03:43:29.243Z,48.63
2018-02-18T03:44:31.753Z,48.73
2018-02-18T03:45:34.226Z,48.84
2018-02-18T03:46:36.700Z,48.83
2018-02-18T03:47:39.165Z,48.87
2018-02-18T03:48:41.631Z,48.93
2018-02-18T03:49:44.133Z,48.93
2018-02-18T03:50:46.610Z,49.15
2018-02-18T03:51:49.100Z,48.99
2018-02-18T03:52:51.577Z,49.07
2018-02-18T03:53:54.046Z,49.05
2018-02-18T03:54:56.602Z,49.31
2018-02-18T03:55:59.081Z,49.03
2018-02-18T03:57:01.555Z,49.06
2018-02-18T03:58:04.089Z,49.03
2018-02-18T03:59:06.546Z,48.99
2018-02-18T04:00:09.050Z,49.00
2018-02-18T04:01:11.527Z,49.04
2018-02-18T04:02:14.021Z,49.20
2018-02-18T04:03:16.495Z,49.18
2018-02-18T04:04:18.967Z,49.20
2018-02-18T04:05:21.462Z,49.23
2018-02-18T04:06:23.937Z,49.31
2018-02-18T04:07:26.415Z,49.33
2018-02-18T04:08:28.890Z,49.30
2018-02-18T04:09:31.389Z,49.35
2018-02-18T04:10:33.883Z,49.37
2018-02-18T04:11:36.351Z,49.43
2018-02-18T04:12:38.827Z,49.34
2018-02-18T04:13:41.303Z,49.51
2018-02-18T04:14:43.830Z,49.53
2018-02-18T04:15:46.329Z,49.50
2018-02-18T04:16:48.818Z,49.49
2018-02-18T04:17:51.309Z,49.62
2018-02-18T04:18:53.786Z,49.38
2018-02-18T04:19:56.251Z,49.29
2018-02-18T04:20:58.794Z,49.15
2018-02-18T04:22:01.272Z,49.15
2018-02-18T04:23:03.758Z,49.15
2018-02-18T04:24:06.228Z,49.17
2018-02-18T04:25:08.691Z,49.31
2018-02-18T04:26:11.191Z,48.94
2018-02-18T04:27:13.673Z,49.18
2018-02-18T04:28:16.160Z,49.10
2018-02-18T04:29:18.623Z,49.27
2018-02-18T04:30:21.106Z,49.32
2018-02-18T04:31:23.596Z,49.38
2018-02-18T04:32:26.058Z,49.35
2018-02-18T04:33:28.549Z,49.33
2018-02-18T04:34:31.038Z,49.36
2018-02-18T04:35:33.537Z,49.56
2018-02-18T04:36:36.045Z,49.67
2018-02-18T04:37:38.503Z,49.75
2018-02-18T04:38:40.971Z,50.05
2018-02-18T04:39:43.466Z,49.95
2018-02-18T04:40:45.942Z,49.71
2018-02-18T04:41:48.449Z,49.75
2018-02-18T04:42:50.926Z,49.82
2018-02-18T04:43:53.391Z,49.83
2018-02-18T04:44:55.856Z,50.02
2018-02-18T04:45:58.319Z,50.39
2018-02-18T04:47:00.811Z,50.17
2018-02-18T04:48:03.294Z,50.16
2018-02-18T04:49:05.783Z,50.04
2018-02-18T04:50:08.266Z,49.82
2018-02-18T04:51:10.763Z,49.73
2018-02-18T04:52:13.248Z,49.64
2018-02-18T04:53:15.721Z,49.71
2018-02-18T04:54:18.191Z,49.75
2018-02-18T04:55:20.672Z,49.90
2018-02-18T04:56:23.153Z,50.24
2018-02-18T04:57:25.628Z,50.46
2018-02-18T04:58:28.096Z,50.36
2018-02-18T04:59:30.575Z,50.47
2018-02-18T05:00:33.069Z,50.60
2018-02-18T05:01:35.545Z,50.49
2018-02-18T05:02:38.043Z,50.45
2018-02-18T05:03:40.517Z,50.47
2018-02-18T05:04:42.980Z,50.24
2018-02-18T05:05:45.459Z,49.99
2018-02-18T05:06:47.935Z,50.09
2018-02-18T05:07:50.422Z,49.88
2018-02-18T05:08:52.887Z,49.67
2018-02-18T05:09:55.365Z,49.58
2018-02-18T05:10:57.841Z,49.70
2018-02-18T05:12:00.304Z,49.75
2018-02-18T05:13:02.787Z,49.66
2018-02-18T05:14:05.247Z,49.69
2018-02-18T05:15:07.733Z,49.75
2018-02-18T05:16:10.208Z,49.64
2018-02-18T05:17:12.679Z,49.65
2018-02-18T05:18:15.175Z,49.61
2018-02-18T05:19:17.658Z,49.75
2018-02-18T05:20:20.122Z,49.73
2018-02-18T05:21:22.601Z,49.75
2018-02-18T05:22:25.081Z,49.83
2018-02-18T05:23:27.563Z,49.88
2018-02-18T05:24:30.034Z,49.74
2018-02-18T05:25:32.509Z,49.84
2018-02-18T05:26:34.993Z,49.98
2018-02-18T05:27:37.476Z,50.05
2018-02-18T05:28:39.989Z,50.23
2018-02-18T05:29:42.461Z,50.24
2018-02-18T05:30:44.930Z,50.20
2018-02-18T05:31:47.399Z,50.28
2018-02-18T05:32:49.888Z,50.28
2018-02-18T05:33:52.397Z,50.29
2018-02-18T05:34:54.877Z,50.12
2018-02-18T05:35:58.215Z,50.11
2018-02-18T05:37:00.710Z,50.23
2018-02-18T05:38:03.179Z,50.09
2018-02-18T05:39:05.671Z,50.14
2018-02-18T05:40:08.150Z,50.22
2018-02-18T05:41:10.615Z,50.44
2018-02-18T05:42:13.079Z,50.59
2018-02-18T05:43:15.544Z,50.41
2018-02-18T05:44:18.039Z,50.21
2018-02-18T05:45:20.507Z,50.27
2018-02-18T05:46:22.975Z,50.66
2018-02-18T05:47:25.436Z,50.83
2018-02-18T05:48:28.393Z,50.84
2018-02-18T05:49:30.875Z,50.85
2018-02-18T05:50:33.349Z,50.87
2018-02-18T05:51:35.815Z,51.30
2018-02-18T05:52:38.280Z,50.94
2018-02-18T05:53:40.765Z,50.98
2018-02-18T05:54:43.261Z,51.26
2018-02-18T05:55:45.749Z,51.01
2018-02-18T05:56:48.211Z,50.96
2018-02-18T05:57:50.684Z,50.58
2018-02-18T05:58:53.260Z,50.78
2018-02-18T05:59:55.751Z,50.65
2018-02-18T06:00:58.237Z,50.71
2018-02-18T06:02:00.716Z,50.67
2018-02-18T06:03:03.183Z,50.70
2018-02-18T06:04:05.700Z,50.58
2018-02-18T06:05:08.177Z,50.88
2018-02-18T06:06:10.653Z,50.75
2018-02-18T06:07:13.119Z,50.93
2018-02-18T06:08:15.582Z,50.97
2018-02-18T06:09:18.071Z,50.93
2018-02-18T06:10:20.535Z,50.86
2018-02-18T06:11:22.999Z,51.12
2018-02-18T06:12:25.484Z,51.35
2018-02-18T06:13:27.958Z,51.03
2018-02-18T06:14:30.456Z,51.08
2018-02-18T06:15:32.945Z,51.39
2018-02-18T06:16:35.433Z,51.47
2018-02-18T06:17:37.912Z,51.44
2018-02-18T06:18:40.401Z,51.32
2018-02-18T06:19:42.896Z,51.57
2018-02-18T06:20:45.379Z,51.35
2018-02-18T06:21:47.867Z,51.76
2018-02-18T06:22:50.345Z,51.87
2018-02-18T06:23:52.842Z,51.39
2018-02-18T06:24:55.336Z,51.70
2018-02-18T06:25:57.815Z,51.65
2018-02-18T06:27:00.301Z,51.15
2018-02-18T06:28:02.783Z,51.34
2018-02-18T06:29:05.305Z,51.37
2018-02-18T06:30:07.793Z,51.34
2018-02-18T06:31:10.281Z,51.25
2018-02-18T06:32:12.762Z,51.16
2018-02-18T06:33:15.281Z,51.00
2018-02-18T06:34:17.810Z,51.00
2018-02-18T06:35:20.298Z,50.90
2018-02-18T06:36:22.775Z,50.70
2018-02-18T06:38:42.323Z,50.42
2018-02-18T06:39:44.802Z,50.33
2018-02-18T06:40:47.275Z,50.34
2018-02-18T06:41:49.752Z,50.25
2018-02-18T06:42:52.234Z,50.31
2018-02-18T06:43:54.722Z,50.33
2018-02-18T06:44:57.213Z,50.22
2018-02-18T06:45:59.694Z,50.29
2018-02-18T06:47:02.180Z,50.34
2018-02-18T06:48:04.643Z,50.45
2018-02-18T06:49:07.116Z,50.46
2018-02-18T06:50:09.591Z,50.50
2018-02-18T06:51:12.088Z,50.57
2018-02-18T06:52:14.568Z,50.59
2018-02-18T06:53:17.061Z,50.66
2018-02-18T06:54:19.537Z,50.67
2018-02-18T06:55:22.017Z,50.66
2018-02-18T06:56:24.484Z,50.96
2018-02-18T06:57:26.946Z,50.82
2018-02-18T06:58:29.438Z,51.05
2018-02-18T06:59:31.925Z,50.96
2018-02-18T07:00:34.407Z,51.02
2018-02-18T07:01:36.894Z,51.19
2018-02-18T07:02:39.428Z,51.09
2018-02-18T07:03:41.905Z,51.13
2018-02-18T07:04:44.385Z,51.26
2018-02-18T07:05:46.852Z,51.47
2018-02-18T07:06:49.327Z,51.42
2018-02-18T07:07:51.804Z,51.52
2018-02-18T07:08:54.288Z,51.12
2018-02-18T07:09:56.766Z,51.08
2018-02-18T07:10:59.267Z,51.25
2018-02-18T07:12:01.739Z,51.04
2018-02-18T07:13:04.208Z,51.14
2018-02-18T07:14:06.742Z,51.24
2018-02-18T07:15:09.223Z,51.22
2018-02-18T07:16:11.701Z,51.28
2018-02-18T07:17:14.186Z,51.51
2018-02-18T07:18:16.655Z,51.29
2018-02-18T07:19:19.133Z,51.04
2018-02-18T07:20:21.613Z,51.09
2018-02-18T07:21:24.098Z,50.98
2018-02-18T07:22:26.558Z,50.70
2018-02-18T07:23:29.042Z,50.92
2018-02-18T07:24:31.499Z,50.69
2018-02-18T07:25:33.983Z,50.66
2018-02-18T07:26:36.460Z,50.80
2018-02-18T07:27:38.942Z,50.64
2018-02-18T07:28:41.429Z,50.62
2018-02-18T07:29:43.907Z,50.64
2018-02-18T07:30:46.395Z,50.86
2018-02-18T07:31:48.946Z,48.21
2018-02-18T07:32:51.434Z,46.03
2018-02-18T07:33:53.924Z,45.14
2018-02-18T07:34:56.590Z,45.60
2018-02-18T07:35:59.055Z,47.00
2018-02-18T07:37:01.553Z,44.98
2018-02-18T07:38:04.046Z,44.57
2018-02-18T07:39:06.523Z,43.88
2018-02-18T07:40:09.016Z,43.23
2018-02-18T07:41:11.499Z,42.98
2018-02-18T07:42:13.975Z,42.91
2018-02-18T07:43:16.452Z,42.76
2018-02-18T07:44:18.929Z,42.89
2018-02-18T07:45:21.429Z,42.93
2018-02-18T07:46:23.915Z,42.92
2018-02-18T07:47:26.395Z,43.00
2018-02-18T07:48:28.867Z,43.18
2018-02-18T07:49:31.349Z,43.19
2018-02-18T07:50:33.843Z,43.27
2018-02-18T07:51:36.312Z,43.34
2018-02-18T07:52:38.780Z,43.51
2018-02-18T07:53:41.247Z,43.76
2018-02-18T07:54:43.717Z,43.80
2018-02-18T07:55:46.188Z,43.76
2018-02-18T07:56:48.651Z,43.69
2018-02-18T07:57:51.137Z,43.77
2018-02-18T07:58:53.629Z,44.16
2018-02-18T07:59:56.119Z,44.21
2018-02-18T08:00:58.718Z,44.00
2018-02-18T08:02:01.201Z,44.04
2018-02-18T08:03:03.677Z,43.97
2018-02-18T08:04:06.144Z,43.94
2018-02-18T08:05:08.614Z,43.89
2018-02-18T08:06:11.093Z,43.87
2018-02-18T08:07:13.567Z,43.88
2018-02-18T08:08:16.039Z,43.87
2018-02-18T08:09:18.507Z,43.79
2018-02-18T08:10:20.989Z,43.78
2018-02-18T08:11:23.468Z,43.76
2018-02-18T08:12:25.948Z,43.60
2018-02-18T08:13:28.467Z,43.45
2018-02-18T08:14:30.953Z,43.46
2018-02-18T08:15:33.431Z,43.46
2018-02-18T08:16:35.913Z,43.53
2018-02-18T08:17:38.432Z,43.49
2018-02-18T08:18:40.887Z,43.30
2018-02-18T08:19:43.354Z,43.38
2018-02-18T08:20:45.836Z,43.57
2018-02-18T08:21:48.299Z,43.13
2018-02-18T08:22:50.791Z,41.17
2018-02-18T08:23:53.258Z,41.25
2018-02-18T08:24:55.753Z,40.39
2018-02-18T08:25:58.250Z,40.04
2018-02-18T08:27:00.749Z,39.91
2018-02-18T08:28:03.236Z,38.32
2018-02-18T08:29:05.727Z,38.43
2018-02-18T08:30:08.239Z,38.42
2018-02-18T08:31:10.724Z,37.54
2018-02-18T08:32:13.204Z,36.63
2018-02-18T08:33:15.687Z,36.91
2018-02-18T08:34:18.171Z,37.30
2018-02-18T08:35:20.715Z,37.70
2018-02-18T08:36:23.217Z,37.95
2018-02-18T08:37:25.814Z,37.96
2018-02-18T08:38:28.920Z,38.23
2018-02-18T08:39:31.409Z,38.52
2018-02-18T08:40:33.910Z,38.53
2018-02-18T08:41:36.379Z,38.54
2018-02-18T08:42:38.865Z,38.59
2018-02-18T08:43:41.349Z,38.68
2018-02-18T08:44:43.837Z,38.79
2018-02-18T08:45:46.304Z,39.62
2018-02-18T08:46:48.789Z,39.56
2018-02-18T08:47:51.290Z,39.04
2018-02-18T08:48:53.763Z,38.97
2018-02-18T08:49:56.227Z,39.42
2018-02-18T08:50:58.717Z,38.87
2018-02-18T08:52:01.222Z,38.84
2018-02-18T08:53:03.691Z,38.76
2018-02-18T08:54:06.178Z,38.72
2018-02-18T08:55:08.664Z,38.70
2018-02-18T08:56:11.150Z,38.70
2018-02-18T08:57:13.619Z,38.62
2018-02-18T08:58:16.105Z,38.63
2018-02-18T08:59:18.579Z,38.43
2018-02-18T09:00:21.047Z,38.55
2018-02-18T09:01:23.537Z,38.93
2018-02-18T09:02:26.019Z,38.64
2018-02-18T09:03:28.505Z,38.31
2018-02-18T09:04:30.977Z,38.09
2018-02-18T09:05:33.452Z,37.98
2018-02-18T09:06:35.947Z,38.05
2018-02-18T09:07:38.420Z,37.68
2018-02-18T09:08:40.910Z,37.34
2018-02-18T09:09:43.394Z,37.14
2018-02-18T09:10:45.865Z,37.13
2018-02-18T09:11:48.339Z,37.00
2018-02-18T09:12:50.803Z,37.45
2018-02-18T09:13:53.290Z,37.19
2018-02-18T09:14:55.773Z,36.98
2018-02-18T09:15:58.241Z,36.84
2018-02-18T09:17:00.722Z,36.79
2018-02-18T09:18:03.200Z,36.65
2018-02-18T09:19:05.672Z,36.73
2018-02-18T09:20:08.265Z,36.53
2018-02-18T09:21:10.755Z,36.18
2018-02-18T09:22:13.268Z,36.06
2018-02-18T09:23:15.769Z,35.82
2018-02-18T09:24:18.261Z,35.60
2018-02-18T09:25:20.750Z,35.56
2018-02-18T09:26:23.238Z,35.39
2018-02-18T09:27:25.712Z,35.23
2018-02-18T09:28:28.209Z,35.35
2018-02-18T09:29:30.693Z,35.14
2018-02-18T09:30:33.191Z,35.04
2018-02-18T09:31:35.668Z,35.11
2018-02-18T09:32:38.149Z,35.36
2018-02-18T09:33:40.621Z,35.14
2018-02-18T09:34:43.096Z,35.17
2018-02-18T09:35:45.583Z,35.16
2018-02-18T09:36:48.056Z,35.12
2018-02-18T09:37:50.543Z,34.79
2018-02-18T09:38:53.034Z,34.66
2018-02-18T09:39:55.504Z,34.60
2018-02-18T09:40:58.447Z,34.26
2018-02-18T09:42:01.244Z,34.17
2018-02-18T09:43:03.768Z,34.04
2018-02-18T09:44:06.255Z,33.92
2018-02-18T09:45:08.730Z,33.95
2018-02-18T09:46:11.218Z,34.06
2018-02-18T09:47:13.691Z,33.98
2018-02-18T09:48:16.163Z,33.92
2018-02-18T09:49:18.649Z,33.80
2018-02-18T09:50:21.138Z,33.78
2018-02-18T09:51:23.611Z,34.15
2018-02-18T09:52:26.137Z,34.27
2018-02-18T09:53:28.608Z,34.13
2018-02-18T09:54:31.117Z,34.30
2018-02-18T09:55:33.585Z,34.00
2018-02-18T09:56:36.073Z,34.02
2018-02-18T09:57:38.539Z,33.75
2018-02-18T09:58:41.022Z,33.61
2018-02-18T09:59:43.493Z,33.49
2018-02-18T10:00:45.977Z,33.37
2018-02-18T10:01:48.443Z,33.35
2018-02-18T10:02:50.929Z,33.57
2018-02-18T10:03:53.404Z,33.48
2018-02-18T10:04:55.876Z,33.49
2018-02-18T10:05:58.385Z,33.70
2018-02-18T10:07:01.026Z,33.38
2018-02-18T10:08:03.514Z,33.38
2018-02-18T10:09:05.994Z,33.82
2018-02-18T10:10:08.472Z,33.73
2018-02-18T10:11:10.941Z,33.84
2018-02-18T10:12:13.411Z,33.96
2018-02-18T10:13:15.913Z,33.66
2018-02-18T10:14:18.677Z,33.06
2018-02-18T10:15:21.146Z,32.78
2018-02-18T10:16:23.644Z,32.67
2018-02-18T10:17:26.121Z,32.73
2018-02-18T10:18:29.319Z,32.85
2018-02-18T10:19:31.801Z,33.05
2018-02-18T10:20:34.271Z,33.33
2018-02-18T10:21:36.765Z,33.83
2018-02-18T10:22:39.239Z,34.00
2018-02-18T10:23:41.785Z,34.14
2018-02-18T10:24:44.285Z,34.24
2018-02-18T10:25:46.760Z,34.48
2018-02-18T10:26:49.236Z,34.65
2018-02-18T10:27:51.741Z,34.84
2018-02-18T10:28:54.263Z,35.04
2018-02-18T10:29:57.125Z,35.21
2018-02-18T10:30:59.612Z,35.39
2018-02-18T10:32:02.086Z,36.05
2018-02-18T10:33:04.559Z,36.26
2018-02-18T10:34:07.045Z,36.62
2018-02-18T10:35:09.528Z,36.89
2018-02-18T10:36:12.030Z,37.75
2018-02-18T10:37:14.499Z,37.32
2018-02-18T10:38:16.974Z,36.96
2018-02-18T10:39:19.454Z,36.61
2018-02-18T10:40:21.929Z,36.59
2018-02-18T10:41:24.427Z,36.72
2018-02-18T10:42:26.922Z,36.93
2018-02-18T10:43:29.387Z,36.97
2018-02-18T10:44:31.851Z,36.89
2018-02-18T10:45:34.345Z,36.56
2018-02-18T10:46:37.454Z,35.47
2018-02-18T10:47:39.933Z,35.49
2018-02-18T10:48:42.402Z,35.29
2018-02-18T10:49:44.892Z,35.33
2018-02-18T10:50:47.391Z,35.44
2018-02-18T10:51:49.877Z,35.55
2018-02-18T10:52:52.356Z,35.69
2018-02-18T10:53:54.840Z,35.79
2018-02-18T10:54:57.311Z,35.88
2018-02-18T10:55:59.853Z,36.03
2018-02-18T10:57:02.323Z,36.11
2018-02-18T10:58:04.809Z,36.07
2018-02-18T10:59:07.310Z,35.94
2018-02-18T11:00:09.798Z,35.92
2018-02-18T11:01:12.268Z,36.05
2018-02-18T11:02:14.760Z,36.21
2018-02-18T11:03:17.232Z,36.31
2018-02-18T11:04:19.721Z,36.39
2018-02-18T11:05:22.207Z,36.53
2018-02-18T11:06:24.675Z,36.56
2018-02-18T11:07:27.152Z,36.65
2018-02-18T11:08:29.632Z,36.76
2018-02-18T11:09:32.117Z,36.78
2018-02-18T11:10:34.607Z,36.86
2018-02-18T11:11:37.080Z,36.89
2018-02-18T11:12:39.547Z,36.94
2018-02-18T11:13:42.026Z,37.04
2018-02-18T11:14:44.527Z,37.06
2018-02-18T11:15:47.009Z,37.13
2018-02-18T11:16:49.507Z,37.12
2018-02-18T11:17:51.976Z,37.05
2018-02-18T11:18:54.456Z,37.11
2018-02-18T11:19:56.924Z,37.24
2018-02-18T11:20:59.439Z,37.27
2018-02-18T11:22:01.945Z,37.15
2018-02-18T11:23:04.557Z,37.25
2018-02-18T11:24:07.116Z,37.28
2018-02-18T11:25:09.618Z,37.34
2018-02-18T11:26:12.134Z,37.25
2018-02-18T11:27:14.727Z,37.28
2018-02-18T11:28:17.207Z,37.48
2018-02-18T11:29:19.693Z,37.47
2018-02-18T11:30:22.182Z,37.47
2018-02-18T11:31:24.648Z,37.56
2018-02-18T11:32:27.116Z,37.48
2018-02-18T11:33:29.599Z,37.51
2018-02-18T11:34:32.063Z,37.50
2018-02-18T11:35:34.595Z,37.54
2018-02-18T11:36:37.074Z,37.53
2018-02-18T11:37:39.583Z,37.53
2018-02-18T11:38:42.060Z,37.67
2018-02-18T11:39:44.527Z,37.75
2018-02-18T11:40:46.998Z,37.99
2018-02-18T11:41:49.724Z,38.12
2018-02-18T11:42:52.213Z,38.17
2018-02-18T11:43:54.726Z,38.23
2018-02-18T11:44:57.299Z,38.27
2018-02-18T11:45:59.786Z,38.23
2018-02-18T11:47:02.256Z,38.17
2018-02-18T11:48:04.736Z,38.16
2018-02-18T11:49:07.208Z,38.08
2018-02-18T11:50:09.708Z,38.02
2018-02-18T11:51:12.195Z,37.91
2018-02-18T11:52:14.687Z,37.81
2018-02-18T11:53:17.185Z,37.79
2018-02-18T11:54:19.671Z,37.69
2018-02-18T11:55:22.282Z,37.67
2018-02-18T11:56:25.046Z,37.64
2018-02-18T11:57:27.540Z,37.56
2018-02-18T11:58:30.012Z,37.53
2018-02-18T11:59:32.480Z,37.49
2018-02-18T12:00:34.952Z,37.46
2018-02-18T12:01:37.422Z,37.44
2018-02-18T12:02:39.915Z,37.38
2018-02-18T12:03:42.503Z,37.36
2018-02-18T12:04:45.010Z,37.29
2018-02-18T12:05:47.510Z,37.27
2018-02-18T12:06:49.994Z,37.21
2018-02-18T12:07:52.484Z,37.17
2018-02-18T12:08:54.960Z,37.14
2018-02-18T12:09:57.444Z,37.12
2018-02-18T12:11:00.335Z,37.07
2018-02-18T12:12:02.807Z,37.04
2018-02-18T12:13:05.362Z,36.92
2018-02-18T12:14:07.883Z,36.99
2018-02-18T12:15:10.405Z,36.96
2018-02-18T12:16:12.877Z,37.18
2018-02-18T12:17:15.356Z,37.43
2018-02-18T12:18:17.917Z,37.57
2018-02-18T12:19:20.383Z,37.55
2018-02-18T12:20:22.852Z,37.54
2018-02-18T12:21:25.402Z,37.36
2018-02-18T12:22:27.871Z,37.20
2018-02-18T12:23:30.351Z,37.05
2018-02-18T12:24:32.837Z,36.77
2018-02-18T12:25:35.322Z,36.71
2018-02-18T12:26:37.824Z,36.58
2018-02-18T12:27:40.313Z,36.49
2018-02-18T12:28:42.803Z,36.47
2018-02-18T12:29:45.272Z,36.39
2018-02-18T12:30:47.753Z,36.43
2018-02-18T12:31:50.219Z,36.44
2018-02-18T12:32:52.709Z,36.48
2018-02-18T12:33:55.199Z,36.55
2018-02-18T12:34:57.754Z,36.61
2018-02-18T12:36:00.255Z,36.65
2018-02-18T12:37:02.737Z,36.70
2018-02-18T12:38:05.535Z,36.74
2018-02-18T12:39:08.124Z,36.66
2018-02-18T12:40:10.632Z,36.62
2018-02-18T12:41:13.122Z,36.52
2018-02-18T12:42:15.602Z,36.48
2018-02-18T12:43:18.068Z,36.47
2018-02-18T12:44:20.550Z,36.44
2018-02-18T12:45:23.042Z,36.45
2018-02-18T12:46:25.511Z,36.46
2018-02-18T12:47:27.991Z,36.48
2018-02-18T12:48:30.481Z,36.54
2018-02-18T12:49:32.939Z,36.60
2018-02-18T12:50:35.414Z,36.69
2018-02-18T12:51:37.915Z,36.78
2018-02-18T12:52:40.382Z,36.85
2018-02-18T12:53:42.851Z,36.89
2018-02-18T12:54:45.372Z,36.93
2018-02-18T12:55:47.850Z,36.94
2018-02-18T12:56:50.333Z,36.94
2018-02-18T12:57:52.821Z,36.78
2018-02-18T12:58:55.292Z,36.68
2018-02-18T12:59:57.865Z,36.66
2018-02-18T13:01:00.335Z,36.65
2018-02-18T13:02:02.821Z,36.64
2018-02-18T13:03:05.295Z,36.66
2018-02-18T13:04:07.773Z,36.66
2018-02-18T13:05:10.259Z,36.70
2018-02-18T13:06:12.749Z,36.77
2018-02-18T13:07:15.232Z,36.96
2018-02-18T13:08:17.705Z,37.28
2018-02-18T13:09:20.176Z,37.20
2018-02-18T13:10:22.727Z,37.51
2018-02-18T13:11:25.200Z,37.36
2018-02-18T13:12:27.685Z,37.17
2018-02-18T13:13:30.170Z,37.13
2018-02-18T13:14:32.649Z,37.04
2018-02-18T13:15:35.111Z,36.91
2018-02-18T13:16:37.590Z,36.75
2018-02-18T13:17:40.051Z,36.59
2018-02-18T13:18:42.533Z,36.55
2018-02-18T13:19:45.019Z,36.51
2018-02-18T13:20:47.506Z,36.50
2018-02-18T13:21:49.975Z,36.54
2018-02-18T13:22:52.458Z,36.54
2018-02-18T13:23:54.931Z,36.56
2018-02-18T13:24:57.403Z,36.64
2018-02-18T13:25:59.887Z,36.63